This is the latest recevied weather packets stored in our database for station/object W5GGH. If no packets are shown the sender has not sent any weather packets the latest 1 day(s).
| Time | Temp. | Humidity | Pressure | Rain* | Wind** | Luminosity | Snow |
|---|---|---|---|---|---|---|---|
| 1778085790 | 12.78° C | 86% | 1031.4 hPa | 0 mm | - | 107 W/m² | - |
| 1778085182 | 12.22° C | 87% | 1031.6 hPa | 0 mm | - | 115 W/m² | - |
| 1778084878 | 12.22° C | 87% | 1031.8 hPa | 0 mm | - | 92 W/m² | - |
| 1778081627 | 12.22° C | 88% | 1030.5 hPa | 0 mm | - | 323 W/m² | - |
| 1778081021 | 12.22° C | 90% | 1031.1 hPa | 0.51 mm | - | 271 W/m² | - |
| 1778080113 | 11.67° C | 90% | 1032.3 hPa | 0.51 mm | - | 121 W/m² | - |
| 1778078597 | 11.67° C | 84% | 1033.6 hPa | 3.05 mm | - | 14 W/m² | - |
| 1778077992 | 11.67° C | 83% | 1032.5 hPa | 0 mm | - | 29 W/m² | - |
| 1778077086 | 11.67° C | 83% | 1031.1 hPa | 0 mm | - | 52 W/m² | - |
| 1778076178 | 12.22° C | 82% | 1031.4 hPa | 0.51 mm | - | 54 W/m² | - |
| 1778075875 | 12.22° C | 81% | 1031.3 hPa | 0 mm | - | 40 W/m² | - |
| 1778075571 | 12.22° C | 80% | 1031.9 hPa | 0 mm | - | 26 W/m² | - |
| 1778075268 | 12.22° C | 80% | 1031.8 hPa | 0 mm | - | 30 W/m² | - |
| 1778073146 | 12.22° C | 79% | 1030.6 hPa | 0 mm | - | 35 W/m² | - |
| 1778072843 | 12.78° C | 78% | 1030.8 hPa | 0 mm | - | 36 W/m² | - |
| 1778072540 | 12.78° C | 79% | 1030.5 hPa | 0 mm | - | 27 W/m² | - |
| 1778072238 | 12.78° C | 78% | 1030.2 hPa | 0 mm | - | 36 W/m² | - |
| 1778070121 | 13.33° C | 74% | 1030 hPa | 0 mm | - | 14 W/m² | - |
| 1778069213 | 13.33° C | 74% | 1029.4 hPa | 0 mm | - | 10 W/m² | - |
| 1778068910 | 13.33° C | 74% | 1029.5 hPa | 0 mm | - | 6 W/m² | - |
| 1778068306 | 13.89° C | 74% | 1029.4 hPa | 0 mm | - | 4 W/m² | - |
| 1778068003 | 13.89° C | 74% | 1029.4 hPa | 0 mm | - | 2 W/m² | - |
| 1778067701 | 13.89° C | 73% | 1029.5 hPa | 0 mm | - | 1 W/m² | - |
| 1778066792 | 13.89° C | 72% | 1029.1 hPa | 0 mm | - | 0 W/m² | - |
| 1778066490 | 13.89° C | 73% | 1029.2 hPa | 0 mm | - | 0 W/m² | - |
* Rain latest hour (hover to see other rain measurements)
** Current wind speed in m/s (hover to see current wind gust speed)